Time;durP1;ratioP1;P1;durP2;ratioP2;P2;SDS_P1;SDS_P2;PMS_P1;PMS_P2;Temp;Humidity;BMP_temperature;BMP_pressure;BME280_temperature;BME280_humidity;BME280_pressure;Samples;Min_cycle;Max_cycle;Signal;HPM_P1;HPM_P2
2022/06/25 14:11:14;;;;;;;10.32;7.63;;;;;;;34.18;32.90;101153.63;6336756;22;20119;-90
2022/06/25 14:13:40;;;;;;;7.30;6.10;;;;;;;34.09;32.69;101156.00;6334498;22;20457;-91
2022/06/25 14:16:06;;;;;;;8.52;6.78;;;;;;;34.07;33.04;101147.28;6335717;22;20006;-91
2022/06/25 14:18:32;;;;;;;11.35;7.13;;;;;;;34.11;32.65;101148.09;6335700;22;20063;-91
2022/06/25 14:20:57;;;;;;;7.65;6.70;;;;;;;34.17;32.48;101142.91;6335325;22;20002;-90
2022/06/25 14:23:23;;;;;;;11.85;7.95;;;;;;;34.14;33.09;101140.94;6335250;22;20010;-89
2022/06/25 14:25:49;;;;;;;9.15;8.20;;;;;;;34.20;33.11;101139.31;6335862;22;20003;-90
2022/06/25 14:28:16;;;;;;;9.85;8.85;;;;;;;34.56;33.06;101139.25;6335966;22;20013;-92
2022/06/25 14:30:42;;;;;;;13.10;9.13;;;;;;;35.01;32.62;101137.47;6336259;22;20085;-93
2022/06/25 14:33:08;;;;;;;10.60;9.50;;;;;;;35.52;32.09;101136.78;6337346;22;20019;-93
2022/06/25 14:35:35;;;;;;;9.32;8.43;;;;;;;36.05;31.27;101135.56;6337505;22;20018;-93
2022/06/25 14:43:30;;;;;;;9.10;7.85;;;;;;;37.65;29.01;101141.91;6339650;22;20020;-93
2022/06/25 14:45:56;;;;;;;11.18;8.15;;;;;;;38.30;28.72;101139.59;6339489;22;20430;-92
2022/06/25 14:48:21;;;;;;;9.10;8.20;;;;;;;38.86;28.18;101136.09;6339509;22;20025;-92
2022/06/25 14:50:56;;;;;;;7.57;6.88;;;;;;;39.01;26.37;101133.78;6339308;22;20003;-94
2022/06/25 14:53:25;;;;;;;8.27;7.22;;;;;;;39.41;26.33;101129.63;6339446;22;20003;-94
2022/06/25 14:55:50;;;;;;;9.60;7.60;;;;;;;39.76;25.95;101132.81;6338397;22;19999;-92
2022/06/25 14:58:19;;;;;;;7.60;6.22;;;;;;;39.93;25.59;101125.94;6338761;22;20006;-92
2022/06/25 15:00:45;;;;;;;5.65;5.15;;;;;;;40.07;25.19;101127.59;6339147;22;20319;-93
2022/06/25 15:03:10;;;;;;;4.45;4.05;;;;;;;40.17;24.56;101137.75;6335629;22;19991;-90
2022/06/25 15:05:36;;;;;;;6.03;5.53;;;;;;;40.42;24.76;101128.66;6336923;22;20055;-93
2022/06/25 15:11:23;;;;;;;7.85;4.25;;;;;;;40.55;24.52;101123.84;6370144;22;20063;-93
2022/06/25 15:13:50;;;;;;;5.18;4.60;;;;;;;40.70;23.85;101125.00;6368971;22;20071;-92
2022/06/25 15:19:37;;;;;;;4.60;4.20;;;;;;;41.33;23.38;101126.31;6370164;22;20017;-92
2022/06/25 15:22:03;;;;;;;5.07;4.03;;;;;;;41.71;21.86;101119.88;6369050;22;20002;-90
2022/06/25 15:24:29;;;;;;;4.05;3.65;;;;;;;42.00;22.17;101126.03;6369978;22;19994;-91
2022/06/25 15:26:55;;;;;;;4.57;4.18;;;;;;;42.13;22.20;101120.41;6368923;22;20055;-89
2022/06/25 15:30:12;;;;;;;6.20;3.60;;;;;;;41.77;20.97;101121.63;6369169;22;20438;-89
2022/06/25 15:32:40;;;;;;;5.03;3.75;;;;;;;41.59;22.31;101113.78;6334908;22;20107;-90
2022/06/25 15:35:06;;;;;;;5.50;4.07;;;;;;;41.00;22.83;101106.84;6342738;22;20501;-90
2022/06/25 15:37:32;;;;;;;6.40;3.95;;;;;;;40.08;23.38;101115.16;6370096;22;20033;-91
2022/06/25 15:39:57;;;;;;;5.18;4.07;;;;;;;39.26;24.02;101112.38;6370217;22;20005;-90
2022/06/25 15:42:25;;;;;;;6.82;4.60;;;;;;;38.61;25.32;101117.78;6370178;22;20441;-91
2022/06/25 15:44:51;;;;;;;4.78;3.80;;;;;;;38.06;25.80;101116.47;6370419;22;20583;-90
2022/06/25 15:47:18;;;;;;;6.07;3.72;;;;;;;37.71;26.13;101119.88;6370584;22;20005;-92
2022/06/25 15:49:46;;;;;;;5.38;3.95;;;;;;;37.81;26.20;101121.69;6369156;22;20123;-91
2022/06/25 15:52:11;;;;;;;8.65;4.07;;;;;;;37.47;26.29;101133.03;6370748;22;20010;-92
2022/06/25 15:54:37;;;;;;;5.93;4.07;;;;;;;37.14;26.39;101123.53;6372719;22;20321;-92
2022/06/25 15:57:03;;;;;;;4.03;3.70;;;;;;;36.91;26.45;101127.84;6375538;22;20091;-92
2022/06/25 15:59:30;;;;;;;5.82;5.03;;;;;;;36.48;27.16;101119.19;6370285;22;20025;-92
2022/06/25 16:01:58;;;;;;;5.53;5.03;;;;;;;36.21;27.81;101119.06;6370450;22;19995;-90
2022/06/25 16:04:26;;;;;;;7.72;4.60;;;;;;;36.40;27.52;101119.69;6371252;22;19998;-92
2022/06/25 16:10:13;;;;;;;4.70;4.20;;;;;;;36.94;26.76;101115.03;6371118;22;20424;-93
2022/06/25 16:12:41;;;;;;;5.30;4.80;;;;;;;37.63;26.13;101118.41;6372269;22;19999;-94
2022/06/25 16:15:07;;;;;;;8.02;4.63;;;;;;;37.57;26.39;101125.69;6374532;22;20025;-92
2022/06/25 16:17:33;;;;;;;4.35;3.97;;;;;;;37.01;26.43;101128.91;6373330;22;19998;-92
2022/06/25 16:19:59;;;;;;;8.07;4.47;;;;;;;36.35;27.53;101123.72;6372336;22;20368;-93
2022/06/25 16:22:25;;;;;;;4.80;4.25;;;;;;;35.84;28.02;101130.19;6346394;22;19994;-92
2022/06/25 16:24:50;;;;;;;8.50;5.05;;;;;;;35.41;28.55;101127.72;6371332;22;19998;-90
2022/06/25 16:27:16;;;;;;;10.40;9.32;;;;;;;35.09;29.17;101133.47;6373566;22;20033;-92
2022/06/25 16:29:44;;;;;;;7.10;5.55;;;;;;;34.93;29.62;101120.03;6373171;22;20009;-91
2022/06/25 16:32:10;;;;;;;6.63;4.30;;;;;;;34.82;30.09;101127.59;6372626;22;20002;-92
2022/06/25 16:34:36;;;;;;;9.02;5.40;;;;;;;34.65;30.09;101122.91;6378720;22;20081;-93
2022/06/25 16:37:02;;;;;;;6.47;4.72;;;;;;;34.56;29.23;101123.34;6377631;22;20433;-91
2022/06/25 16:39:28;;;;;;;5.18;4.18;;;;;;;34.66;30.97;101121.75;6375279;22;19999;-91
2022/06/25 16:41:56;;;;;;;5.07;4.00;;;;;;;35.55;31.14;101129.59;6349650;22;20002;-92
2022/06/25 16:44:22;;;;;;;6.18;5.57;;;;;;;35.73;30.61;101133.84;6345324;22;20002;-91
2022/06/25 16:46:49;;;;;;;7.28;4.78;;;;;;;35.20;31.28;101144.56;6372922;22;19998;-91
2022/06/25 16:49:30;;;;;;;6.30;4.70;;;;;;;35.00;31.30;101147.81;6372102;22;20065;-92
2022/06/25 16:51:58;;;;;;;6.60;4.55;;;;;;;35.39;30.48;101132.94;6370808;22;20002;-92
2022/06/25 16:54:29;;;;;;;6.93;4.57;;;;;;;35.55;30.51;101130.41;6370743;22;20426;-91
2022/06/25 16:56:59;;;;;;;5.30;4.40;;;;;;;35.24;30.92;101134.19;6369992;22;20468;-91
2022/06/25 16:59:31;;;;;;;7.93;3.97;;;;;;;34.79;31.89;101134.78;6371240;22;20017;-92
2022/06/25 17:01:57;;;;;;;4.70;4.20;;;;;;;34.46;32.35;101135.31;6371679;22;19994;-93
2022/06/25 17:04:25;;;;;;;5.88;5.28;;;;;;;34.14;33.13;101138.94;6382658;22;20013;-93
2022/06/25 17:06:51;;;;;;;20.30;5.55;;;;;;;33.90;33.29;101134.97;6386657;22;20002;-94
2022/06/25 17:09:17;;;;;;;7.15;3.80;;;;;;;33.67;34.22;101145.69;6350729;22;20729;-95
2022/06/25 17:12:12;;;;;;;5.68;4.82;;;;;;;33.13;35.21;101155.88;6377702;22;19998;-93
2022/06/25 17:15:13;;;;;;;5.28;4.78;;;;;;;32.85;37.23;101156.56;6380273;22;20001;-93
2022/06/25 17:17:38;;;;;;;6.32;4.80;;;;;;;32.84;37.20;101156.94;6349171;22;20077;-92
2022/06/25 17:20:05;;;;;;;5.10;4.57;;;;;;;32.68;37.88;101154.50;6370277;22;20512;-92
2022/06/25 17:22:34;;;;;;;5.65;4.70;;;;;;;32.50;37.27;101156.34;6342858;22;20002;-92
2022/06/25 17:25:00;;;;;;;6.28;4.60;;;;;;;32.32;36.95;101157.06;6343855;22;20046;-93
2022/06/25 17:27:25;;;;;;;7.03;5.05;;;;;;;32.16;37.64;101156.53;6368617;22;20060;-94
2022/06/25 17:29:51;;;;;;;5.95;4.80;;;;;;;32.00;38.98;101162.34;6374917;22;20334;-93
2022/06/25 17:32:17;;;;;;;5.95;4.40;;;;;;;31.79;40.44;101156.66;6370956;22;20017;-95
2022/06/25 17:34:42;;;;;;;6.93;5.28;;;;;;;31.55;41.13;101158.75;6344537;22;20002;-94
2022/06/25 17:37:08;;;;;;;5.97;5.15;;;;;;;31.48;41.73;101157.91;6376547;22;20069;-94
2022/06/25 17:39:34;;;;;;;6.10;5.30;;;;;;;31.44;41.18;101157.88;6371482;22;19999;-94
2022/06/25 17:42:02;;;;;;;9.27;6.32;;;;;;;31.45;40.95;101165.00;6372188;22;20002;-94
2022/06/25 17:44:27;;;;;;;12.93;7.03;;;;;;;31.41;40.67;101164.16;6370727;22;19995;-93
2022/06/25 17:46:53;;;;;;;8.30;7.50;;;;;;;31.25;41.63;101171.91;6375437;22;20014;-94
2022/06/25 17:49:18;;;;;;;8.02;6.70;;;;;;;30.96;41.64;101177.06;6350744;22;20013;-93
2022/06/25 17:51:44;;;;;;;7.18;6.55;;;;;;;30.79;41.20;101183.19;6375577;22;19998;-94
2022/06/25 17:54:10;;;;;;;6.75;6.07;;;;;;;30.55;41.42;101183.59;6376598;22;20199;-95
2022/06/25 17:56:36;;;;;;;7.93;6.07;;;;;;;30.33;41.57;101179.72;6352388;22;20027;-95
2022/06/25 17:59:01;;;;;;;7.78;6.30;;;;;;;30.19;41.64;101180.31;6377546;22;19994;-94
2022/06/25 18:01:30;;;;;;;6.90;5.82;;;;;;;30.02;41.92;101186.31;6377551;22;20006;-93
2022/06/25 18:03:56;;;;;;;6.72;6.10;;;;;;;29.78;42.61;101191.03;6348753;22;19994;-94
2022/06/25 18:06:21;;;;;;;7.55;5.75;;;;;;;29.65;42.88;101197.91;6372456;22;20009;-93
2022/06/25 18:08:47;;;;;;;6.28;5.40;;;;;;;29.58;43.17;101205.25;6372854;22;19995;-94
2022/06/25 18:11:13;;;;;;;14.73;7.88;;;;;;;29.29;44.76;101242.53;6379493;22;20032;-94
2022/06/25 18:13:46;;;;;;;6.28;5.68;;;;;;;28.70;45.74;101254.59;6383471;22;20014;-94
2022/06/25 18:16:13;;;;;;;8.73;5.63;;;;;;;28.35;46.51;101249.84;6384421;22;20006;-94
2022/06/25 18:18:38;;;;;;;8.40;5.97;;;;;;;28.03;47.50;101249.03;6378506;22;20009;-93
2022/06/25 18:21:04;;;;;;;16.77;5.75;;;;;;;27.81;48.11;101258.66;6376689;22;20061;-94
2022/06/25 18:23:30;;;;;;;11.00;5.25;;;;;;;27.61;48.56;101256.91;6379530;22;19998;-93
2022/06/25 18:25:59;;;;;;;9.13;5.60;;;;;;;27.32;49.79;101255.31;6378068;22;19998;-93
2022/06/25 18:28:25;;;;;;;35.20;6.53;;;;;;;27.13;50.36;101252.38;6378599;22;20330;-95
2022/06/25 18:30:51;;;;;;;16.63;6.43;;;;;;;26.92;51.65;101267.03;6378655;22;20009;-93
2022/06/25 18:33:18;;;;;;;39.78;6.95;;;;;;;26.65;54.14;101271.31;6372639;22;19998;-92
2022/06/25 18:35:46;;;;;;;12.88;5.38;;;;;;;26.18;56.74;101257.97;6370723;22;20429;-91
2022/06/25 18:38:12;;;;;;;10.35;5.28;;;;;;;25.78;59.94;101248.75;6372267;22;20049;-92
2022/06/25 18:40:43;;;;;;;9.30;5.25;;;;;;;25.19;63.68;101238.75;6370784;22;20077;-91
2022/06/25 18:43:09;;;;;;;6.25;5.05;;;;;;;24.58;65.79;101232.81;6371307;22;20072;-93
2022/06/25 18:45:36;;;;;;;6.07;5.13;;;;;;;23.90;67.89;101223.75;6371368;22;20090;-91
2022/06/25 18:48:01;;;;;;;8.75;6.15;;;;;;;23.72;71.59;101250.34;6372026;22;19999;-93
2022/06/25 18:50:27;;;;;;;9.63;6.00;;;;;;;23.49;73.68;101251.63;6374417;22;20002;-94
2022/06/25 18:52:53;;;;;;;9.50;5.90;;;;;;;23.36;72.95;101250.69;6372825;22;20056;-93
2022/06/25 18:55:18;;;;;;;8.07;4.85;;;;;;;23.17;72.14;101259.19;6372833;22;20002;-93
2022/06/25 18:57:44;;;;;;;6.90;6.20;;;;;;;23.17;74.05;101264.66;6372090;22;20002;-93
2022/06/25 19:00:10;;;;;;;11.65;5.88;;;;;;;23.25;73.39;101275.91;6369980;22;20025;-92
2022/06/25 19:02:36;;;;;;;7.70;5.50;;;;;;;23.13;73.29;101282.81;6346902;22;19998;-93
2022/06/25 19:05:02;;;;;;;7.53;5.80;;;;;;;23.05;74.16;101283.59;6374300;22;20132;-93
2022/06/25 19:07:28;;;;;;;8.57;6.60;;;;;;;23.15;75.71;101302.41;6373156;22;19996;-94
2022/06/25 19:09:54;;;;;;;8.20;6.15;;;;;;;23.27;75.84;101301.00;6372531;22;20515;-93
2022/06/25 19:13:04;;;;;;;7.03;6.38;;;;;;;23.25;75.15;101298.59;6373491;22;19998;-93
2022/06/25 19:15:29;;;;;;;11.25;6.95;;;;;;;23.43;75.49;101302.13;6372309;22;20008;-93
2022/06/25 19:17:55;;;;;;;8.07;6.78;;;;;;;23.58;75.06;101307.16;6376023;22;20006;-93
2022/06/25 19:20:21;;;;;;;7.63;6.18;;;;;;;23.69;74.62;101304.88;6375579;22;20010;-93
2022/06/25 19:22:46;;;;;;;10.23;7.90;;;;;;;23.74;74.38;101307.47;6371859;22;20445;-93
2022/06/25 19:31:59;;;;;;;8.27;6.82;;;;;;;23.93;73.86;101316.16;6378604;22;20132;-95
2022/06/25 19:34:25;;;;;;;7.47;6.47;;;;;;;23.87;73.40;101324.84;6375735;22;20063;-94
2022/06/25 19:36:51;;;;;;;9.77;7.90;;;;;;;23.80;73.94;101331.59;6386286;22;19998;-95
2022/06/25 19:39:17;;;;;;;8.60;7.00;;;;;;;23.85;74.08;101332.56;6392156;22;20014;-95
2022/06/25 19:41:43;;;;;;;10.32;8.02;;;;;;;23.77;73.34;101326.78;6397141;22;19998;-93
2022/06/25 19:44:09;;;;;;;11.57;8.52;;;;;;;23.68;73.96;101322.44;6387637;22;20006;-94
2022/06/25 19:46:39;;;;;;;10.25;8.57;;;;;;;23.67;74.78;101323.56;6378465;22;20005;-93
2022/06/25 19:49:07;;;;;;;14.23;9.93;;;;;;;23.70;75.60;101331.16;6379834;22;19999;-94
2022/06/25 19:51:33;;;;;;;12.23;8.75;;;;;;;23.72;75.44;101321.50;6385497;22;19998;-94
2022/06/25 19:53:59;;;;;;;10.77;8.85;;;;;;;23.73;75.81;101314.09;6378015;22;19994;-93
2022/06/25 19:56:32;;;;;;;12.70;8.45;;;;;;;23.74;76.07;101318.44;6379418;22;20002;-94
2022/06/25 19:58:59;;;;;;;12.30;9.25;;;;;;;23.73;76.33;101320.34;6388189;22;19982;-94
2022/06/25 20:01:24;;;;;;;12.05;9.70;;;;;;;23.72;76.02;101309.75;6352850;22;20033;-92
2022/06/25 20:03:50;;;;;;;11.57;8.93;;;;;;;23.69;75.87;101321.31;6371519;22;20402;-93
2022/06/25 20:06:15;;;;;;;14.27;10.55;;;;;;;23.61;76.47;101317.47;6379748;22;20374;-93
2022/06/25 20:08:41;;;;;;;10.68;9.07;;;;;;;23.57;76.75;101319.22;6388285;22;20085;-92
2022/06/25 20:11:07;;;;;;;11.90;9.20;;;;;;;23.52;76.51;101320.16;6378849;22;20014;-92
2022/06/25 20:13:33;;;;;;;10.93;8.55;;;;;;;23.49;76.66;101317.25;6381979;22;20002;-95
2022/06/25 20:15:58;;;;;;;12.18;8.38;;;;;;;23.41;76.02;101312.59;6386579;22;20018;-94
2022/06/25 20:18:24;;;;;;;9.45;8.40;;;;;;;23.19;76.34;101306.16;6387881;22;19998;-93
2022/06/25 20:20:50;;;;;;;9.60;8.02;;;;;;;23.07;77.07;101303.22;6390626;22;19990;-93
2022/06/25 20:23:18;;;;;;;9.85;8.82;;;;;;;22.99;77.21;101305.94;6392751;22;20017;-93
2022/06/25 20:25:44;;;;;;;9.93;8.93;;;;;;;23.01;77.75;101309.16;6391740;22;20054;-91
2022/06/25 20:28:10;;;;;;;10.10;8.68;;;;;;;23.04;77.88;101314.78;6395721;22;19994;-92
2022/06/25 20:30:35;;;;;;;13.93;9.40;;;;;;;23.05;78.37;101316.41;6395828;22;19987;-92
2022/06/25 20:33:01;;;;;;;10.18;9.15;;;;;;;23.01;78.32;101320.91;6393614;22;20003;-93
2022/06/25 20:35:29;;;;;;;10.75;8.80;;;;;;;23.00;78.44;101326.69;6396445;22;19994;-92
2022/06/25 20:37:55;;;;;;;11.32;8.68;;;;;;;23.01;78.39;101320.09;6394153;22;19990;-92
2022/06/25 20:40:20;;;;;;;9.65;8.48;;;;;;;22.99;78.72;101322.34;6395587;22;19995;-93
2022/06/25 20:42:46;;;;;;;10.85;8.50;;;;;;;22.95;78.28;101318.63;6396952;22;19997;-93
2022/06/25 20:45:12;;;;;;;11.02;9.07;;;;;;;22.93;78.76;101321.66;6393070;22;20006;-92
2022/06/25 20:47:37;;;;;;;11.35;9.35;;;;;;;22.93;78.81;101324.41;6396772;22;20006;-94
2022/06/25 20:50:04;;;;;;;11.18;8.10;;;;;;;22.94;78.47;101323.28;6396547;22;20074;-93
2022/06/25 20:52:30;;;;;;;9.43;7.43;;;;;;;22.94;78.33;101322.47;6396553;22;20001;-93
2022/06/25 20:54:56;;;;;;;10.30;8.02;;;;;;;22.95;78.03;101322.16;6383494;22;20006;-92
2022/06/25 20:57:21;;;;;;;11.35;8.52;;;;;;;22.96;77.75;101325.69;6375092;22;20002;-92
2022/06/25 20:59:49;;;;;;;10.38;8.18;;;;;;;22.95;77.63;101319.41;6375223;22;20453;-93
2022/06/25 21:02:15;;;;;;;10.05;9.07;;;;;;;22.94;77.90;101315.06;6370318;22;20428;-93
2022/06/25 21:08:05;;;;;;;10.23;9.15;;;;;;;22.88;78.62;101322.63;6371658;22;20337;-91
2022/06/25 21:10:30;;;;;;;11.50;10.25;;;;;;;22.85;78.80;101317.00;6370697;22;19994;-92
2022/06/25 21:12:56;;;;;;;10.48;9.38;;;;;;;22.79;78.94;101320.94;6342506;22;19994;-92
